Time;durP1;ratioP1;P1;durP2;ratioP2;P2;SDS_P1;SDS_P2;PMS_P1;PMS_P2;Temp;Humidity;BMP_temperature;BMP_pressure;BME280_temperature;BME280_humidity;BME280_pressure;Samples;Min_cycle;Max_cycle;Signal;HPM_P1;HPM_P2
2022/03/31 00:00:30;;;;;;;22.25;8.82;;;;;;;14.09;58.28;98946.00;5078847;28;20363;-74
2022/03/31 00:02:59;;;;;;;31.60;8.95;;;;;;;13.79;60.03;98941.06;5079992;28;20078;-76
2022/03/31 00:05:24;;;;;;;22.17;8.25;;;;;;;13.64;60.58;98938.56;5079084;28;20029;-74
2022/03/31 00:07:52;;;;;;;33.00;8.52;;;;;;;13.42;60.97;98929.88;5078097;28;20059;-74
2022/03/31 00:10:26;;;;;;;26.75;8.05;;;;;;;13.06;61.59;98897.44;5080428;28;20040;-74
2022/03/31 00:12:53;;;;;;;22.45;7.68;;;;;;;13.64;61.16;98921.78;5078680;28;20210;-74
2022/03/31 00:15:19;;;;;;;20.25;7.35;;;;;;;13.70;60.20;98923.66;5079076;28;20493;-76
2022/03/31 00:17:45;;;;;;;18.45;7.43;;;;;;;13.87;60.07;98937.38;5079120;28;20082;-76
2022/03/31 00:20:11;;;;;;;24.58;7.75;;;;;;;13.97;59.58;98930.63;5077567;28;20115;-74
2022/03/31 00:22:38;;;;;;;25.45;7.70;;;;;;;14.04;59.09;98923.47;5078957;28;20036;-75
2022/03/31 00:25:05;;;;;;;21.77;8.25;;;;;;;14.06;58.39;98916.09;5079160;28;20040;-74
2022/03/31 00:27:30;;;;;;;24.55;8.10;;;;;;;13.75;59.75;98918.53;5079406;28;20330;-75
2022/03/31 00:29:56;;;;;;;25.60;7.88;;;;;;;13.50;61.09;98922.75;5077322;28;20090;-74
2022/03/31 00:32:22;;;;;;;21.98;7.75;;;;;;;13.29;61.51;98923.72;5077980;28;20070;-74
2022/03/31 00:34:47;;;;;;;26.50;8.02;;;;;;;13.17;62.38;98919.97;5079902;28;20062;-74
2022/03/31 00:37:13;;;;;;;25.15;8.05;;;;;;;12.93;63.38;98914.13;5078797;28;20059;-74
2022/03/31 00:39:38;;;;;;;28.00;9.00;;;;;;;13.01;63.85;98939.72;5078525;28;20127;-79
2022/03/31 00:42:05;;;;;;;25.75;9.07;;;;;;;12.92;63.52;98907.19;5079468;28;20024;-73
2022/03/31 00:44:31;;;;;;;17.60;7.63;;;;;;;12.77;64.48;98906.50;5078810;28;20097;-74
2022/03/31 00:46:57;;;;;;;22.38;7.65;;;;;;;12.81;65.24;98931.66;5078592;28;20040;-74
2022/03/31 00:49:23;;;;;;;20.05;7.43;;;;;;;12.87;65.07;98932.69;5079067;28;20383;-76
2022/03/31 00:51:50;;;;;;;27.83;7.85;;;;;;;12.82;64.63;98921.84;5078067;28;20363;-76
2022/03/31 00:54:19;;;;;;;28.77;8.55;;;;;;;12.69;64.63;98919.94;5078219;28;20040;-77
2022/03/31 00:56:46;;;;;;;25.80;7.80;;;;;;;12.78;64.57;98911.59;5078101;28;20096;-74
2022/03/31 00:59:12;;;;;;;21.50;7.85;;;;;;;12.78;65.00;98929.38;5095019;28;20025;-75
2022/03/31 01:01:42;;;;;;;28.98;8.50;;;;;;;12.72;65.28;98923.00;5077778;28;20350;-77
2022/03/31 01:04:08;;;;;;;33.05;9.00;;;;;;;12.87;64.76;98922.06;5078332;28;20275;-75
2022/03/31 01:06:34;;;;;;;30.40;8.82;;;;;;;12.94;64.28;98925.59;5078146;28;20253;-74
2022/03/31 01:09:00;;;;;;;18.42;8.57;;;;;;;13.09;64.06;98935.06;5079448;28;20043;-76
2022/03/31 01:11:28;;;;;;;23.35;8.63;;;;;;;13.20;62.88;98936.34;5077868;28;20059;-76
2022/03/31 01:13:53;;;;;;;31.85;9.27;;;;;;;12.98;64.04;98929.47;5078360;28;20146;-76
2022/03/31 01:16:19;;;;;;;23.98;9.00;;;;;;;12.88;63.67;98926.38;5078592;28;20346;-74
2022/03/31 01:18:44;;;;;;;23.83;9.32;;;;;;;12.68;64.87;98932.38;5077433;28;20260;-74
2022/03/31 01:21:10;;;;;;;28.00;9.15;;;;;;;12.59;65.02;98930.09;5077750;28;20016;-74
2022/03/31 01:23:36;;;;;;;24.52;9.40;;;;;;;12.36;66.48;98936.44;5078650;28;20032;-77
2022/03/31 01:26:05;;;;;;;31.75;8.10;;;;;;;12.40;66.08;98921.75;5077894;28;20024;-78
2022/03/31 01:28:31;;;;;;;24.35;8.13;;;;;;;12.61;66.05;98922.75;5077724;28;20095;-75
2022/03/31 01:30:57;;;;;;;20.33;9.23;;;;;;;12.63;66.07;98936.66;5076347;28;20033;-76
2022/03/31 01:33:22;;;;;;;21.23;7.40;;;;;;;12.26;67.51;98921.84;5077553;28;20684;-74
2022/03/31 01:35:48;;;;;;;23.52;9.05;;;;;;;11.75;69.09;98903.44;5077540;28;20130;-74
2022/03/31 01:38:13;;;;;;;30.15;9.07;;;;;;;11.79;69.47;98923.31;5078544;28;20080;-74
2022/03/31 01:40:39;;;;;;;25.67;9.27;;;;;;;11.96;69.26;98937.13;5077194;28;20357;-76
2022/03/31 01:43:04;;;;;;;24.27;8.93;;;;;;;12.16;67.80;98938.13;5078536;28;20032;-76
2022/03/31 01:45:30;;;;;;;18.10;8.60;;;;;;;12.40;67.22;98928.91;5075977;28;20033;-74
2022/03/31 01:47:56;;;;;;;22.38;8.82;;;;;;;12.50;66.34;98924.09;5076951;28;20297;-74
2022/03/31 01:50:21;;;;;;;27.38;8.70;;;;;;;12.76;64.97;98918.94;5078158;28;20095;-75
2022/03/31 01:52:47;;;;;;;22.23;8.38;;;;;;;12.91;63.54;98900.22;5077506;28;20115;-74
2022/03/31 01:55:12;;;;;;;18.15;9.13;;;;;;;13.04;63.67;98897.63;5077125;28;20036;-75
2022/03/31 01:57:38;;;;;;;23.05;8.30;;;;;;;13.22;62.71;98901.59;5076627;28;20693;-74
2022/03/31 02:00:07;;;;;;;28.25;8.77;;;;;;;12.86;62.65;98854.81;5076687;28;20040;-74
2022/03/31 02:02:32;;;;;;;29.92;10.00;;;;;;;12.97;63.33;98883.50;5076761;28;20098;-76
2022/03/31 02:04:58;;;;;;;19.30;8.27;;;;;;;12.88;63.59;98882.03;5077431;28;20318;-76
2022/03/31 02:07:23;;;;;;;25.33;8.65;;;;;;;12.84;63.86;98909.19;5075707;28;20368;-73
2022/03/31 02:09:49;;;;;;;25.60;7.95;;;;;;;12.91;63.50;98902.88;5076710;28;20036;-74
2022/03/31 02:12:14;;;;;;;30.60;9.25;;;;;;;13.03;63.38;98909.28;5077013;28;20220;-74
2022/03/31 02:14:41;;;;;;;22.40;9.00;;;;;;;13.30;62.04;98886.28;5076784;28;20317;-75
2022/03/31 02:17:13;;;;;;;20.60;8.18;;;;;;;12.98;62.92;98893.09;5076946;28;20033;-74
2022/03/31 02:19:39;;;;;;;29.38;8.23;;;;;;;12.73;63.24;98879.50;5075985;28;20032;-76
2022/03/31 02:22:05;;;;;;;26.73;8.75;;;;;;;12.69;64.51;98890.72;5075886;28;20066;-76
2022/03/31 02:24:31;;;;;;;28.50;8.55;;;;;;;12.69;63.62;98890.72;5076713;28;20298;-74
2022/03/31 02:26:57;;;;;;;20.50;8.02;;;;;;;12.79;63.90;98897.31;5075057;28;20035;-74
2022/03/31 02:29:23;;;;;;;23.48;9.13;;;;;;;12.78;63.22;98877.06;5077297;28;20036;-74
2022/03/31 02:31:48;;;;;;;21.73;8.45;;;;;;;12.95;63.09;98904.13;5076061;28;20042;-77
2022/03/31 02:34:15;;;;;;;23.48;8.55;;;;;;;12.95;62.85;98884.72;5077432;28;20590;-74
2022/03/31 02:36:40;;;;;;;18.00;8.20;;;;;;;12.77;63.23;98896.69;5075205;28;20027;-74
2022/03/31 02:39:07;;;;;;;28.75;8.43;;;;;;;12.41;64.60;98888.88;5077324;28;20240;-74
2022/03/31 02:41:33;;;;;;;28.70;8.98;;;;;;;12.22;65.54;98888.75;5076245;28;20029;-74
2022/03/31 02:43:59;;;;;;;25.33;8.00;;;;;;;12.22;65.30;98892.22;5076637;28;20082;-76
2022/03/31 02:46:28;;;;;;;24.85;8.38;;;;;;;12.21;66.40;98906.50;5077081;28;20100;-76
2022/03/31 02:48:55;;;;;;;27.88;9.23;;;;;;;12.27;65.88;98913.69;5075888;28;20074;-74
2022/03/31 02:51:21;;;;;;;25.58;8.40;;;;;;;12.33;65.28;98890.88;5076541;28;20037;-77
2022/03/31 02:56:31;;;;;;;;;;;;;;;12.85;63.67;98911.63;5078998;28;20051;-75
2022/03/31 02:58:57;;;;;;;31.45;9.15;;;;;;;12.85;63.70;98905.50;5080616;28;20124;-74
2022/03/31 03:01:22;;;;;;;23.48;9.18;;;;;;;12.85;63.20;98922.28;5079960;28;20052;-74
2022/03/31 03:03:50;;;;;;;23.42;8.88;;;;;;;12.78;63.75;98919.56;5080947;28;20067;-74
2022/03/31 03:06:16;;;;;;;24.20;10.10;;;;;;;12.82;63.42;98908.56;5080099;28;20059;-76
2022/03/31 03:08:42;;;;;;;33.60;10.55;;;;;;;12.67;63.84;98908.69;5079140;28;20029;-75
2022/03/31 03:11:08;;;;;;;40.30;13.57;;;;;;;12.82;63.04;98909.38;5079044;28;20031;-76
2022/03/31 03:13:35;;;;;;;41.80;15.25;;;;;;;12.85;63.59;98911.63;5080381;28;20071;-74
2022/03/31 03:16:08;;;;;;;38.08;13.77;;;;;;;12.89;62.68;98896.13;5080620;28;20054;-74
2022/03/31 03:18:38;;;;;;;32.63;12.45;;;;;;;13.02;61.76;98899.66;5080208;28;20016;-74
2022/03/31 03:21:04;;;;;;;32.55;12.02;;;;;;;12.89;61.91;98912.06;5080258;28;20158;-77
2022/03/31 03:23:33;;;;;;;35.50;12.02;;;;;;;12.77;63.10;98888.72;5079132;28;20028;-74
2022/03/31 03:26:01;;;;;;;31.88;12.20;;;;;;;12.84;62.53;98886.09;5080273;28;20029;-76
2022/03/31 03:28:27;;;;;;;34.35;10.30;;;;;;;12.76;63.47;98860.50;5080278;28;20025;-76
2022/03/31 03:30:53;;;;;;;32.40;11.70;;;;;;;12.90;62.55;98882.63;5080044;28;20033;-76
2022/03/31 03:33:18;;;;;;;46.33;12.48;;;;;;;12.94;62.39;98877.75;5082309;28;20074;-77
2022/03/31 03:35:44;;;;;;;26.05;10.85;;;;;;;12.98;61.96;98879.81;5082606;28;20021;-74
2022/03/31 03:38:09;;;;;;;31.10;11.02;;;;;;;12.99;62.34;98888.59;5084247;28;20096;-73
2022/03/31 03:40:35;;;;;;;32.28;10.65;;;;;;;12.98;61.72;98861.22;5083637;28;20032;-74
2022/03/31 03:43:00;;;;;;;42.78;11.05;;;;;;;13.05;61.89;98877.19;5083968;28;20016;-75
2022/03/31 03:45:26;;;;;;;24.77;10.25;;;;;;;12.84;62.58;98867.50;5083930;28;20039;-76
2022/03/31 03:47:51;;;;;;;41.85;13.15;;;;;;;12.83;62.42;98887.09;5081507;28;20336;-74
2022/03/31 03:50:18;;;;;;;46.05;14.30;;;;;;;12.89;62.86;98881.00;5079692;28;20348;-76
2022/03/31 03:52:43;;;;;;;34.42;13.32;;;;;;;12.96;62.73;98873.06;5079628;28;20024;-74
2022/03/31 03:55:10;;;;;;;30.73;12.70;;;;;;;13.04;62.73;98862.25;5080102;28;20031;-76
2022/03/31 03:57:36;;;;;;;31.77;13.20;;;;;;;12.99;62.52;98875.31;5078529;28;20043;-76
2022/03/31 04:00:03;;;;;;;38.65;13.32;;;;;;;12.89;62.71;98886.31;5078468;28;20337;-74
2022/03/31 04:02:28;;;;;;;33.05;11.93;;;;;;;12.85;62.86;98879.75;5080438;28;20264;-76
2022/03/31 04:04:54;;;;;;;38.47;18.35;;;;;;;12.92;62.87;98869.16;5079776;28;20040;-74
2022/03/31 04:07:20;;;;;;;34.45;11.82;;;;;;;12.90;63.50;98873.84;5081851;28;20130;-74
2022/03/31 04:09:45;;;;;;;34.13;11.82;;;;;;;12.91;62.50;98872.84;5079554;28;20037;-74
2022/03/31 04:12:11;;;;;;;29.08;12.00;;;;;;;12.83;63.65;98888.94;5077934;28;20031;-77
2022/03/31 04:14:38;;;;;;;31.48;11.80;;;;;;;12.54;64.29;98898.81;5079166;28;20029;-76
2022/03/31 04:17:03;;;;;;;34.00;13.10;;;;;;;12.65;64.39;98887.63;5079174;28;20044;-74
2022/03/31 04:19:29;;;;;;;35.80;12.07;;;;;;;12.76;64.44;98880.94;5078211;28;20050;-73
2022/03/31 04:21:55;;;;;;;37.25;13.27;;;;;;;12.88;63.10;98870.56;5077598;28;20107;-74
2022/03/31 04:24:20;;;;;;;41.67;13.38;;;;;;;12.98;63.00;98874.50;5080129;28;20101;-76
2022/03/31 04:26:45;;;;;;;45.25;12.85;;;;;;;13.17;62.05;98888.09;5078738;28;20029;-75
2022/03/31 04:29:11;;;;;;;37.33;12.80;;;;;;;13.13;62.67;98881.50;5079007;28;20059;-77
2022/03/31 04:31:42;;;;;;;50.90;14.68;;;;;;;13.14;62.27;98868.00;5079732;28;20222;-74
2022/03/31 04:34:15;;;;;;;41.25;12.90;;;;;;;13.17;62.92;98867.66;5078433;28;20214;-75
2022/03/31 04:36:41;;;;;;;40.47;13.07;;;;;;;13.08;62.94;98853.69;5078580;28;20024;-75
2022/03/31 04:39:06;;;;;;;40.60;12.95;;;;;;;13.13;62.65;98869.03;5079025;28;20214;-75
2022/03/31 04:41:32;;;;;;;35.92;13.15;;;;;;;13.06;62.72;98861.03;5079619;28;20041;-75
2022/03/31 04:43:58;;;;;;;53.90;12.85;;;;;;;12.97;63.24;98851.59;5078376;28;20042;-76
2022/03/31 04:46:24;;;;;;;44.30;13.07;;;;;;;13.07;63.18;98856.53;5076623;28;20245;-76
2022/03/31 04:48:49;;;;;;;46.10;12.57;;;;;;;13.17;63.16;98862.31;5076829;28;20025;-76
2022/03/31 04:51:15;;;;;;;40.40;12.40;;;;;;;13.17;63.60;98865.00;5077844;28;20136;-75
2022/03/31 04:53:40;;;;;;;39.05;13.60;;;;;;;13.27;62.81;98884.03;5078605;28;20113;-76
2022/03/31 04:56:06;;;;;;;48.85;14.30;;;;;;;13.32;62.99;98878.13;5079430;28;20031;-74
2022/03/31 04:58:31;;;;;;;50.63;15.73;;;;;;;13.22;62.83;98875.84;5078346;28;20116;-74
2022/03/31 05:00:57;;;;;;;44.05;14.73;;;;;;;13.36;63.10;98895.31;5077912;28;20096;-76
2022/03/31 05:03:22;;;;;;;58.33;15.57;;;;;;;13.31;62.92;98909.19;5078615;28;20116;-75
2022/03/31 05:05:48;;;;;;;57.30;17.50;;;;;;;13.36;63.21;98911.25;5077789;28;20041;-74
2022/03/31 05:08:14;;;;;;;55.20;17.27;;;;;;;13.10;63.56;98898.66;5078215;28;20020;-74
2022/03/31 05:10:40;;;;;;;46.15;16.45;;;;;;;13.27;63.50;98923.91;5079192;28;20052;-75
2022/03/31 05:13:05;;;;;;;49.88;15.30;;;;;;;13.36;63.21;98933.34;5076707;28;20035;-77
2022/03/31 05:15:31;;;;;;;75.63;17.33;;;;;;;13.36;63.42;98925.38;5078182;28;20024;-74
2022/03/31 05:17:56;;;;;;;57.90;16.40;;;;;;;13.54;62.97;98911.53;5078614;28;20028;-79
2022/03/31 05:20:22;;;;;;;77.38;18.60;;;;;;;13.48;63.21;98917.63;5077520;28;20568;-74
2022/03/31 05:22:48;;;;;;;62.70;20.02;;;;;;;13.20;64.17;98920.41;5077977;28;20024;-78
2022/03/31 05:25:13;;;;;;;54.28;23.35;;;;;;;12.93;64.47;98910.66;5078658;28;20108;-75
2022/03/31 05:27:44;;;;;;;64.75;21.80;;;;;;;13.00;65.06;98909.66;5077709;28;20210;-77
2022/03/31 05:30:12;;;;;;;68.93;23.42;;;;;;;13.13;64.77;98908.09;5076557;28;20344;-78
2022/03/31 05:32:37;;;;;;;66.35;21.13;;;;;;;13.46;63.34;98913.53;5077780;28;20084;-76
2022/03/31 05:35:03;;;;;;;61.53;20.58;;;;;;;13.45;63.71;98898.59;5079155;28;20425;-74
2022/03/31 05:37:28;;;;;;;59.28;20.08;;;;;;;13.44;64.01;98895.13;5079465;28;20036;-74
2022/03/31 05:39:54;;;;;;;62.85;20.58;;;;;;;13.36;64.61;98911.25;5079407;28;20431;-75
2022/03/31 05:42:19;;;;;;;65.32;21.90;;;;;;;12.99;67.78;98913.34;5079210;28;20036;-77
2022/03/31 05:44:45;;;;;;;69.80;22.58;;;;;;;12.89;68.74;98920.03;5079373;28;20020;-77
2022/03/31 05:47:11;;;;;;;41.03;17.85;;;;;;;12.77;70.28;98920.59;5079383;28;20051;-74
2022/03/31 05:49:36;;;;;;;44.60;17.02;;;;;;;12.83;70.17;98916.31;5078399;28;20044;-74
2022/03/31 05:52:02;;;;;;;42.72;14.65;;;;;;;13.05;70.80;98919.69;5079637;28;20032;-77
2022/03/31 05:54:28;;;;;;;37.80;14.32;;;;;;;12.72;72.77;98930.16;5076402;28;20033;-76
2022/03/31 05:56:53;;;;;;;39.72;15.30;;;;;;;12.63;74.41;98931.34;5078247;28;20051;-74
2022/03/31 05:59:19;;;;;;;43.45;14.60;;;;;;;12.98;71.49;98934.78;5079778;28;20032;-74
2022/03/31 06:01:44;;;;;;;44.10;14.38;;;;;;;13.18;71.56;98937.56;5078384;28;20040;-74
2022/03/31 06:04:10;;;;;;;38.05;14.50;;;;;;;12.72;73.76;98936.28;5079526;28;20032;-76
2022/03/31 06:06:35;;;;;;;52.95;15.70;;;;;;;12.46;74.86;98923.63;5078797;28;20338;-74
2022/03/31 06:09:00;;;;;;;35.17;13.57;;;;;;;12.76;74.33;98932.22;5078757;28;20309;-77
2022/03/31 06:11:26;;;;;;;40.00;14.25;;;;;;;13.06;72.72;98930.13;5079428;28;20066;-76
2022/03/31 06:13:52;;;;;;;39.55;13.02;;;;;;;13.12;72.78;98931.19;5078854;28;20016;-76
2022/03/31 06:16:17;;;;;;;40.97;13.30;;;;;;;13.08;73.53;98945.88;5079990;28;20078;-74
2022/03/31 06:18:43;;;;;;;34.67;14.57;;;;;;;13.19;74.37;98942.69;5079361;28;20016;-74
2022/03/31 06:21:09;;;;;;;33.35;14.00;;;;;;;13.13;75.72;98943.44;5110513;28;20044;-78
2022/03/31 06:23:34;;;;;;;35.72;12.63;;;;;;;13.01;74.72;98939.72;5079279;28;20028;-74
2022/03/31 06:25:59;;;;;;;36.45;13.35;;;;;;;13.20;73.61;98954.16;5076600;28;20037;-77
2022/03/31 06:28:28;;;;;;;27.40;14.15;;;;;;;13.29;74.46;98960.94;5078483;28;20033;-74
2022/03/31 06:30:54;;;;;;;39.33;15.65;;;;;;;13.32;75.33;98972.00;5079415;28;20031;-76
2022/03/31 06:33:20;;;;;;;49.63;20.10;;;;;;;13.49;75.12;98976.97;5078384;28;20029;-76
2022/03/31 06:35:46;;;;;;;37.05;16.85;;;;;;;13.16;76.16;98959.00;5073602;28;20032;-76
2022/03/31 06:38:12;;;;;;;30.00;13.82;;;;;;;13.06;76.42;98939.94;5079124;28;20036;-76
2022/03/31 06:40:40;;;;;;;27.83;13.18;;;;;;;13.17;75.06;98938.59;5077875;28;20040;-76
2022/03/31 06:43:05;;;;;;;37.55;13.77;;;;;;;12.92;76.53;98920.47;5079201;28;20039;-76
2022/03/31 06:45:32;;;;;;;33.53;14.23;;;;;;;13.29;74.30;98910.41;5076545;28;20047;-74
2022/03/31 06:47:58;;;;;;;34.75;14.00;;;;;;;13.49;71.93;98898.00;5077706;28;20278;-76
2022/03/31 06:50:24;;;;;;;39.90;16.15;;;;;;;13.45;72.26;98883.47;5077043;28;20028;-74
2022/03/31 06:52:50;;;;;;;44.75;15.68;;;;;;;13.57;71.28;98900.50;5077905;28;20044;-74
2022/03/31 06:55:15;;;;;;;46.63;19.10;;;;;;;13.68;70.66;98913.22;5078008;28;20118;-76
2022/03/31 06:57:41;;;;;;;40.13;17.55;;;;;;;13.76;72.38;98898.91;5079233;28;20040;-74
2022/03/31 07:00:07;;;;;;;42.08;19.60;;;;;;;13.61;72.59;98883.13;5075566;28;20032;-73
2022/03/31 07:02:32;;;;;;;48.17;20.88;;;;;;;13.47;73.91;98881.44;5078079;28;20235;-74
2022/03/31 07:04:58;;;;;;;44.25;22.05;;;;;;;13.86;72.14;98898.50;5078663;28;20028;-77
2022/03/31 07:07:24;;;;;;;50.15;21.27;;;;;;;13.98;71.97;98903.00;5080654;28;20020;-74
2022/03/31 07:09:51;;;;;;;32.42;13.98;;;;;;;14.23;70.37;98902.38;5083364;28;20187;-77
2022/03/31 07:12:17;;;;;;;35.28;12.50;;;;;;;14.41;69.17;98913.22;5082274;28;20025;-77
2022/03/31 07:14:43;;;;;;;37.75;12.88;;;;;;;14.63;67.70;98924.53;5081697;28;20043;-77
2022/03/31 07:17:09;;;;;;;36.28;13.25;;;;;;;14.82;66.54;98934.31;5082442;28;20020;-77
2022/03/31 07:19:35;;;;;;;26.75;11.93;;;;;;;14.87;65.87;98947.03;5081934;28;20044;-75
2022/03/31 07:22:01;;;;;;;48.00;12.30;;;;;;;14.80;66.85;98943.56;5082273;28;20062;-75
2022/03/31 07:24:26;;;;;;;40.25;11.77;;;;;;;14.73;66.63;98951.56;5082751;28;20041;-77
2022/03/31 07:26:52;;;;;;;38.78;12.30;;;;;;;14.88;67.84;98949.47;5081540;28;20115;-74
2022/03/31 07:29:17;;;;;;;34.15;12.98;;;;;;;14.95;65.80;98957.44;5082358;28;20040;-76
2022/03/31 07:31:43;;;;;;;39.03;14.88;;;;;;;15.04;66.26;98952.72;5082267;28;20103;-74
2022/03/31 07:34:08;;;;;;;39.97;14.18;;;;;;;15.23;65.91;98970.50;5081645;28;20028;-74
2022/03/31 07:36:34;;;;;;;48.15;15.70;;;;;;;15.39;65.81;98970.00;5081005;28;20065;-76
2022/03/31 07:38:59;;;;;;;47.70;14.13;;;;;;;15.78;64.95;98966.38;5079065;28;20016;-74
2022/03/31 07:41:25;;;;;;;33.97;14.13;;;;;;;15.73;64.07;98960.88;5081703;28;20064;-79
2022/03/31 07:43:50;;;;;;;38.58;13.27;;;;;;;15.83;62.94;98950.53;5082445;28;20032;-74
2022/03/31 07:46:15;;;;;;;41.15;14.32;;;;;;;15.91;63.12;98942.28;5081733;28;20213;-75
2022/03/31 07:48:41;;;;;;;42.70;13.77;;;;;;;16.15;63.24;98959.38;5082018;28;20104;-76
2022/03/31 07:51:06;;;;;;;49.65;13.27;;;;;;;16.29;62.60;98944.88;5081322;28;20078;-75
2022/03/31 07:53:35;;;;;;;43.47;13.30;;;;;;;16.42;61.60;98935.09;5081395;28;20032;-77
2022/03/31 07:56:02;;;;;;;35.20;12.63;;;;;;;16.56;61.57;98929.41;5081764;28;20043;-76
2022/03/31 07:58:28;;;;;;;32.00;13.05;;;;;;;16.46;61.50;98930.94;5081174;28;20032;-77
2022/03/31 08:00:53;;;;;;;35.13;12.65;;;;;;;16.54;61.23;98904.75;5081141;28;20036;-75
2022/03/31 08:03:19;;;;;;;32.58;12.13;;;;;;;16.55;60.95;98921.63;5081701;28;20035;-77
2022/03/31 08:05:46;;;;;;;41.00;14.02;;;;;;;16.78;60.43;98916.50;5080653;28;20033;-74
2022/03/31 08:08:12;;;;;;;33.47;14.23;;;;;;;16.34;62.76;98906.00;5082110;28;20028;-76
2022/03/31 08:10:38;;;;;;;43.55;14.18;;;;;;;16.03;64.36;98888.19;5080608;28;20045;-74
2022/03/31 08:13:04;;;;;;;35.33;12.70;;;;;;;15.85;65.41;98913.78;5081090;28;20222;-77
2022/03/31 08:15:30;;;;;;;41.22;12.93;;;;;;;16.14;63.40;98914.19;5081435;28;20238;-74
2022/03/31 08:17:56;;;;;;;37.38;13.18;;;;;;;16.08;64.58;98912.38;5080882;28;20028;-77
2022/03/31 08:20:21;;;;;;;36.22;12.95;;;;;;;16.06;66.62;98914.44;5078661;28;20028;-74
2022/03/31 08:22:48;;;;;;;36.83;12.25;;;;;;;15.86;65.55;98918.09;5080869;28;20008;-78
2022/03/31 08:25:14;;;;;;;35.70;12.30;;;;;;;15.79;66.63;98906.63;5081242;28;20032;-74
2022/03/31 08:27:40;;;;;;;38.75;13.32;;;;;;;15.80;67.73;98918.13;5080749;28;20083;-74
2022/03/31 08:30:13;;;;;;;43.00;13.38;;;;;;;16.03;66.56;98922.91;5081825;28;20029;-77
2022/03/31 08:32:42;;;;;;;35.22;12.90;;;;;;;16.26;64.81;98923.94;5081312;28;20029;-74
2022/03/31 08:35:08;;;;;;;45.75;13.88;;;;;;;16.45;64.48;98926.66;5080062;28;20297;-77
2022/03/31 08:37:34;;;;;;;34.72;12.43;;;;;;;16.47;63.49;98920.03;5079158;28;20024;-75
2022/03/31 08:40:00;;;;;;;41.80;12.90;;;;;;;16.88;62.84;98916.81;5081000;28;20337;-74
2022/03/31 08:42:25;;;;;;;49.95;14.15;;;;;;;16.64;64.39;98892.75;5080260;28;20036;-77
2022/03/31 08:44:52;;;;;;;39.20;12.70;;;;;;;16.49;63.73;98891.25;5081236;28;20310;-77
2022/03/31 08:47:19;;;;;;;41.85;13.40;;;;;;;16.53;63.93;98886.28;5080764;28;20040;-77
2022/03/31 08:49:46;;;;;;;45.13;12.95;;;;;;;16.56;65.33;98904.53;5079575;28;20036;-74
2022/03/31 08:52:12;;;;;;;41.30;13.40;;;;;;;16.49;64.21;98893.09;5077135;28;20031;-77
2022/03/31 08:54:39;;;;;;;43.67;13.15;;;;;;;16.59;65.86;98901.44;5080592;28;20036;-76
2022/03/31 08:57:05;;;;;;;38.13;13.68;;;;;;;16.90;64.95;98903.22;5080095;28;20367;-75
2022/03/31 08:59:31;;;;;;;45.83;13.73;;;;;;;16.88;63.89;98899.94;5080631;28;20044;-74
2022/03/31 09:01:58;;;;;;;42.47;14.23;;;;;;;16.98;65.34;98884.19;5081457;28;20042;-78
2022/03/31 09:04:24;;;;;;;44.20;13.15;;;;;;;17.19;63.98;98882.91;5079482;28;20115;-75
2022/03/31 09:07:07;;;;;;;45.22;13.15;;;;;;;17.34;63.05;98885.19;5079534;28;20063;-79
2022/03/31 09:09:47;;;;;;;39.90;13.75;;;;;;;17.05;64.15;98863.53;5078197;28;20036;-74
2022/03/31 09:12:12;;;;;;;36.65;11.88;;;;;;;17.11;63.82;98851.13;5075730;28;20087;-74
2022/03/31 09:14:38;;;;;;;36.60;12.23;;;;;;;16.95;63.49;98819.66;5080640;28;20216;-75
2022/03/31 09:17:15;;;;;;;33.03;11.77;;;;;;;17.08;64.14;98847.03;5079365;28;20349;-77
2022/03/31 09:19:42;;;;;;;39.13;12.55;;;;;;;17.20;62.80;98861.28;5079232;28;20028;-77
2022/03/31 09:22:08;;;;;;;45.60;11.07;;;;;;;17.49;62.54;98870.34;5082016;28;20028;-77
2022/03/31 09:24:34;;;;;;;36.35;9.88;;;;;;;17.58;60.08;98865.47;5077613;28;20321;-77
2022/03/31 09:27:02;;;;;;;32.38;10.02;;;;;;;17.63;59.08;98854.91;5080404;28;20039;-74
2022/03/31 09:29:29;;;;;;;44.50;10.70;;;;;;;17.64;60.03;98869.91;5078732;28;20032;-75
2022/03/31 09:32:12;;;;;;;35.35;9.05;;;;;;;17.68;59.33;98883.69;5079781;28;20090;-78
2022/03/31 09:34:47;;;;;;;42.35;9.15;;;;;;;17.70;59.77;98879.78;5071392;28;20024;-74
2022/03/31 09:37:13;;;;;;;32.90;9.23;;;;;;;17.78;59.82;98867.91;5079114;28;20328;-77
2022/03/31 09:39:39;;;;;;;35.42;8.85;;;;;;;17.99;59.28;98870.06;5077089;28;20017;-77
2022/03/31 09:42:13;;;;;;;36.65;9.60;;;;;;;18.10;59.37;98863.06;5078112;28;20032;-77
2022/03/31 09:44:39;;;;;;;35.78;9.25;;;;;;;18.30;58.27;98858.19;5079035;28;20625;-75
2022/03/31 09:47:05;;;;;;;35.08;8.35;;;;;;;18.25;54.31;98839.31;5078953;28;20058;-75
2022/03/31 09:49:30;;;;;;;35.97;8.50;;;;;;;18.56;56.84;98854.19;5078019;28;20032;-79
2022/03/31 09:52:01;;;;;;;34.55;8.60;;;;;;;18.74;52.88;98839.91;5076974;28;20233;-74
2022/03/31 09:54:29;;;;;;;36.00;9.00;;;;;;;18.86;54.02;98832.63;5076738;28;20044;-74
2022/03/31 09:56:57;;;;;;;32.30;8.30;;;;;;;18.94;53.95;98828.75;5079683;28;20407;-74
2022/03/31 09:59:49;;;;;;;34.38;8.80;;;;;;;18.87;52.94;98820.84;5078646;28;20148;-75
2022/03/31 10:02:14;;;;;;;38.17;8.48;;;;;;;18.83;52.31;98818.88;5079619;28;20097;-77
2022/03/31 10:04:44;;;;;;;30.48;8.90;;;;;;;18.95;52.33;98807.06;5078178;28;20048;-75
2022/03/31 10:07:10;;;;;;;32.35;8.35;;;;;;;19.01;53.13;98781.97;5076005;28;20025;-77
2022/03/31 10:09:39;;;;;;;34.15;8.02;;;;;;;19.04;52.82;98778.78;5079043;28;20494;-75
2022/03/31 10:12:33;;;;;;;36.53;7.78;;;;;;;19.38;51.30;98776.16;5076715;28;20061;-75
2022/03/31 10:15:09;;;;;;;40.90;9.33;;;;;;;19.29;50.63;98774.94;5078688;28;20230;-75
2022/03/31 10:17:35;;;;;;;43.15;7.88;;;;;;;19.52;48.71;98757.88;5078188;28;20694;-75
2022/03/31 10:20:07;;;;;;;29.05;8.20;;;;;;;19.62;48.78;98780.38;5077861;28;20062;-75
2022/03/31 10:25:17;;;;;;;33.95;8.30;;;;;;;19.89;47.60;98803.91;5076979;28;20035;-78
2022/03/31 10:27:49;;;;;;;31.40;7.85;;;;;;;19.94;47.54;98804.00;5077118;28;20322;-77
2022/03/31 10:30:17;;;;;;;33.28;7.70;;;;;;;20.14;47.69;98795.41;5078189;28;20058;-75
2022/03/31 10:32:51;;;;;;;38.53;7.18;;;;;;;20.36;46.32;98767.50;5078099;28;20273;-75
2022/03/31 10:35:31;;;;;;;35.10;7.63;;;;;;;20.47;44.02;98754.22;5078623;28;20241;-75
2022/03/31 10:37:59;;;;;;;36.40;7.43;;;;;;;20.62;48.22;98749.84;5075850;28;20017;-80
2022/03/31 10:40:51;;;;;;;35.13;7.32;;;;;;;20.45;44.13;98775.19;5078554;28;20040;-77
2022/03/31 10:43:21;;;;;;;45.42;7.47;;;;;;;20.43;45.34;98785.38;5077491;28;20040;-78
2022/03/31 10:45:48;;;;;;;40.08;7.15;;;;;;;20.48;43.19;98759.34;5075410;28;20314;-75
2022/03/31 10:48:20;;;;;;;44.42;8.32;;;;;;;20.88;41.29;98758.22;5078868;28;20028;-78
2022/03/31 10:50:47;;;;;;;34.60;8.23;;;;;;;20.77;43.08;98749.19;5078812;28;20191;-75
2022/03/31 10:53:13;;;;;;;32.65;7.32;;;;;;;20.46;42.39;98747.22;5078205;28;20024;-75
2022/03/31 10:55:40;;;;;;;35.22;7.15;;;;;;;20.48;42.06;98742.41;5077980;28;20043;-78
2022/03/31 10:58:07;;;;;;;42.58;7.60;;;;;;;20.53;42.62;98745.16;5078690;28;20298;-78
2022/03/31 11:00:32;;;;;;;39.83;8.38;;;;;;;20.55;42.65;98748.41;5077620;28;20273;-77
2022/03/31 11:02:59;;;;;;;39.63;7.15;;;;;;;20.74;41.63;98747.03;5076444;28;20075;-75
2022/03/31 11:05:27;;;;;;;45.72;8.07;;;;;;;20.77;42.23;98746.50;5078786;28;20252;-75
2022/03/31 11:08:07;;;;;;;35.35;6.57;;;;;;;20.50;42.24;98740.28;5078164;28;20036;-75
2022/03/31 11:10:43;;;;;;;42.75;7.70;;;;;;;20.80;43.21;98746.00;5076005;28;20031;-78
2022/03/31 11:13:09;;;;;;;36.83;7.22;;;;;;;20.68;44.50;98748.84;5078350;28;20044;-75
2022/03/31 11:15:35;;;;;;;66.28;9.52;;;;;;;20.92;44.38;98745.91;5079302;28;20322;-76
2022/03/31 11:18:00;;;;;;;40.70;7.97;;;;;;;20.93;42.99;98742.94;5078803;28;20033;-77
2022/03/31 11:20:27;;;;;;;46.22;8.18;;;;;;;20.64;44.56;98725.38;5077058;28;20122;-76
2022/03/31 11:23:03;;;;;;;34.85;7.93;;;;;;;20.71;44.44;98734.06;5079029;28;20037;-74
2022/03/31 11:25:29;;;;;;;36.45;8.02;;;;;;;20.78;45.17;98737.38;5078411;28;20086;-75